sensor_id;sensor_type;location;lat;lon;timestamp;P1;durP1;ratioP1;P2;durP2;ratioP2
63217;SDS011;49314;48.278;16.378;2022-07-05T00:00:30;1.93;;;1.73;;
63217;SDS011;49314;48.278;16.378;2022-07-05T00:02:55;2.00;;;1.90;;
63217;SDS011;49314;48.278;16.378;2022-07-05T00:05:20;2.13;;;2.03;;
63217;SDS011;49314;48.278;16.378;2022-07-05T00:07:45;2.20;;;2.10;;
63217;SDS011;49314;48.278;16.378;2022-07-05T00:10:10;2.37;;;2.20;;
63217;SDS011;49314;48.278;16.378;2022-07-05T00:12:36;2.20;;;2.00;;
63217;SDS011;49314;48.278;16.378;2022-07-05T00:15:01;1.70;;;1.60;;
63217;SDS011;49314;48.278;16.378;2022-07-05T00:17:26;2.30;;;2.10;;
63217;SDS011;49314;48.278;16.378;2022-07-05T00:19:52;2.20;;;2.00;;
63217;SDS011;49314;48.278;16.378;2022-07-05T00:22:17;2.77;;;2.10;;
63217;SDS011;49314;48.278;16.378;2022-07-05T00:24:42;2.23;;;2.13;;
63217;SDS011;49314;48.278;16.378;2022-07-05T00:27:07;1.95;;;1.73;;
63217;SDS011;49314;48.278;16.378;2022-07-05T00:29:33;2.15;;;1.80;;
63217;SDS011;49314;48.278;16.378;2022-07-05T00:31:58;1.73;;;1.63;;
63217;SDS011;49314;48.278;16.378;2022-07-05T00:34:23;2.17;;;2.07;;
63217;SDS011;49314;48.278;16.378;2022-07-05T00:36:49;2.67;;;1.77;;
63217;SDS011;49314;48.278;16.378;2022-07-05T00:39:14;2.05;;;1.95;;
63217;SDS011;49314;48.278;16.378;2022-07-05T00:41:39;2.42;;;2.00;;
63217;SDS011;49314;48.278;16.378;2022-07-05T00:44:06;2.00;;;1.90;;
63217;SDS011;49314;48.278;16.378;2022-07-05T00:46:31;2.05;;;1.95;;
63217;SDS011;49314;48.278;16.378;2022-07-05T00:48:57;2.17;;;1.98;;
63217;SDS011;49314;48.278;16.378;2022-07-05T00:51:23;2.53;;;2.33;;
63217;SDS011;49314;48.278;16.378;2022-07-05T00:53:48;2.67;;;1.70;;
63217;SDS011;49314;48.278;16.378;2022-07-05T00:56:14;2.25;;;2.05;;
63217;SDS011;49314;48.278;16.378;2022-07-05T00:58:39;2.20;;;2.00;;
63217;SDS011;49314;48.278;16.378;2022-07-05T01:01:06;1.75;;;1.65;;
63217;SDS011;49314;48.278;16.378;2022-07-05T01:03:31;2.35;;;2.15;;
63217;SDS011;49314;48.278;16.378;2022-07-05T01:05:57;1.90;;;1.80;;
63217;SDS011;49314;48.278;16.378;2022-07-05T01:08:23;2.22;;;2.03;;
63217;SDS011;49314;48.278;16.378;2022-07-05T01:10:49;2.15;;;2.00;;
63217;SDS011;49314;48.278;16.378;2022-07-05T01:13:14;2.13;;;1.92;;
63217;SDS011;49314;48.278;16.378;2022-07-05T01:15:39;2.40;;;1.58;;
63217;SDS011;49314;48.278;16.378;2022-07-05T01:18:05;2.08;;;1.88;;
63217;SDS011;49314;48.278;16.378;2022-07-05T01:20:31;1.88;;;1.70;;
63217;SDS011;49314;48.278;16.378;2022-07-05T01:22:57;3.67;;;1.92;;
63217;SDS011;49314;48.278;16.378;2022-07-05T01:25:25;1.63;;;1.52;;
63217;SDS011;49314;48.278;16.378;2022-07-05T01:27:51;1.55;;;1.45;;
63217;SDS011;49314;48.278;16.378;2022-07-05T01:30:17;1.98;;;1.88;;
63217;SDS011;49314;48.278;16.378;2022-07-05T01:32:42;3.67;;;1.73;;
63217;SDS011;49314;48.278;16.378;2022-07-05T01:35:08;3.17;;;1.85;;
63217;SDS011;49314;48.278;16.378;2022-07-05T01:37:33;1.98;;;1.80;;
63217;SDS011;49314;48.278;16.378;2022-07-05T01:40:00;1.60;;;1.50;;
63217;SDS011;49314;48.278;16.378;2022-07-05T01:42:26;1.83;;;1.73;;
63217;SDS011;49314;48.278;16.378;2022-07-05T01:44:51;1.60;;;1.50;;
63217;SDS011;49314;48.278;16.378;2022-07-05T01:47:17;1.67;;;1.57;;
63217;SDS011;49314;48.278;16.378;2022-07-05T01:49:43;1.63;;;1.53;;
63217;SDS011;49314;48.278;16.378;2022-07-05T01:52:10;1.70;;;1.55;;
63217;SDS011;49314;48.278;16.378;2022-07-05T01:54:35;2.40;;;1.80;;
63217;SDS011;49314;48.278;16.378;2022-07-05T01:57:01;2.25;;;1.60;;
63217;SDS011;49314;48.278;16.378;2022-07-05T01:59:27;2.80;;;1.80;;
63217;SDS011;49314;48.278;16.378;2022-07-05T02:01:52;1.83;;;1.70;;
63217;SDS011;49314;48.278;16.378;2022-07-05T02:04:18;1.80;;;1.53;;
63217;SDS011;49314;48.278;16.378;2022-07-05T02:06:43;1.75;;;1.50;;
63217;SDS011;49314;48.278;16.378;2022-07-05T02:09:10;1.50;;;1.40;;
63217;SDS011;49314;48.278;16.378;2022-07-05T02:11:35;3.07;;;1.73;;
63217;SDS011;49314;48.278;16.378;2022-07-05T02:14:01;2.33;;;1.80;;
63217;SDS011;49314;48.278;16.378;2022-07-05T02:16:27;2.55;;;1.90;;
63217;SDS011;49314;48.278;16.378;2022-07-05T02:18:52;2.10;;;2.00;;
63217;SDS011;49314;48.278;16.378;2022-07-05T02:21:18;2.00;;;1.90;;
63217;SDS011;49314;48.278;16.378;2022-07-05T02:23:43;2.60;;;1.40;;
63217;SDS011;49314;48.278;16.378;2022-07-05T02:26:08;1.53;;;1.40;;
63217;SDS011;49314;48.278;16.378;2022-07-05T02:28:33;1.83;;;1.63;;
63217;SDS011;49314;48.278;16.378;2022-07-05T02:30:59;1.87;;;1.57;;
63217;SDS011;49314;48.278;16.378;2022-07-05T02:33:24;2.33;;;1.50;;
63217;SDS011;49314;48.278;16.378;2022-07-05T02:35:49;1.77;;;1.67;;
63217;SDS011;49314;48.278;16.378;2022-07-05T02:38:14;1.42;;;1.33;;
63217;SDS011;49314;48.278;16.378;2022-07-05T02:40:40;2.23;;;2.03;;
63217;SDS011;49314;48.278;16.378;2022-07-05T02:43:05;2.20;;;1.60;;
63217;SDS011;49314;48.278;16.378;2022-07-05T02:45:30;1.60;;;1.50;;
63217;SDS011;49314;48.278;16.378;2022-07-05T02:47:56;2.97;;;1.97;;
63217;SDS011;49314;48.278;16.378;2022-07-05T02:50:22;2.58;;;1.63;;
63217;SDS011;49314;48.278;16.378;2022-07-05T02:52:47;2.03;;;1.70;;
63217;SDS011;49314;48.278;16.378;2022-07-05T02:55:12;2.00;;;1.67;;
63217;SDS011;49314;48.278;16.378;2022-07-05T02:57:37;1.60;;;1.50;;
63217;SDS011;49314;48.278;16.378;2022-07-05T03:00:03;2.60;;;1.83;;
63217;SDS011;49314;48.278;16.378;2022-07-05T03:02:28;2.92;;;2.00;;
63217;SDS011;49314;48.278;16.378;2022-07-05T03:04:54;2.33;;;1.60;;
63217;SDS011;49314;48.278;16.378;2022-07-05T03:07:19;1.40;;;1.30;;
63217;SDS011;49314;48.278;16.378;2022-07-05T03:09:44;1.57;;;1.47;;
63217;SDS011;49314;48.278;16.378;2022-07-05T03:12:09;1.80;;;1.70;;
63217;SDS011;49314;48.278;16.378;2022-07-05T03:14:35;1.60;;;1.50;;
63217;SDS011;49314;48.278;16.378;2022-07-05T03:17:00;2.57;;;2.17;;
63217;SDS011;49314;48.278;16.378;2022-07-05T03:19:25;2.08;;;1.75;;
63217;SDS011;49314;48.278;16.378;2022-07-05T03:21:50;3.50;;;1.40;;
63217;SDS011;49314;48.278;16.378;2022-07-05T03:24:16;1.93;;;1.83;;
63217;SDS011;49314;48.278;16.378;2022-07-05T03:26:41;1.63;;;1.53;;
63217;SDS011;49314;48.278;16.378;2022-07-05T03:29:06;3.88;;;1.45;;
63217;SDS011;49314;48.278;16.378;2022-07-05T03:31:32;1.92;;;1.63;;
63217;SDS011;49314;48.278;16.378;2022-07-05T03:33:57;1.60;;;1.50;;
63217;SDS011;49314;48.278;16.378;2022-07-05T03:36:22;1.77;;;1.53;;
63217;SDS011;49314;48.278;16.378;2022-07-05T03:38:48;4.50;;;1.50;;
63217;SDS011;49314;48.278;16.378;2022-07-05T03:41:13;1.90;;;1.75;;
63217;SDS011;49314;48.278;16.378;2022-07-05T03:43:38;1.80;;;1.70;;
63217;SDS011;49314;48.278;16.378;2022-07-05T03:46:03;1.70;;;1.60;;
63217;SDS011;49314;48.278;16.378;2022-07-05T03:48:29;2.73;;;1.80;;
63217;SDS011;49314;48.278;16.378;2022-07-05T03:50:54;1.57;;;1.40;;
63217;SDS011;49314;48.278;16.378;2022-07-05T03:53:19;1.87;;;1.77;;
63217;SDS011;49314;48.278;16.378;2022-07-05T03:55:44;1.52;;;1.42;;
63217;SDS011;49314;48.278;16.378;2022-07-05T03:58:10;2.67;;;2.00;;
63217;SDS011;49314;48.278;16.378;2022-07-05T04:00:35;2.20;;;2.00;;
63217;SDS011;49314;48.278;16.378;2022-07-05T04:03:00;2.17;;;1.98;;
63217;SDS011;49314;48.278;16.378;2022-07-05T04:05:26;3.88;;;1.95;;
63217;SDS011;49314;48.278;16.378;2022-07-05T04:07:51;2.87;;;2.07;;
63217;SDS011;49314;48.278;16.378;2022-07-05T04:10:17;2.55;;;1.98;;
63217;SDS011;49314;48.278;16.378;2022-07-05T04:12:42;2.35;;;2.10;;
63217;SDS011;49314;48.278;16.378;2022-07-05T04:15:08;2.65;;;2.17;;
63217;SDS011;49314;48.278;16.378;2022-07-05T04:17:33;3.70;;;2.30;;
63217;SDS011;49314;48.278;16.378;2022-07-05T04:19:58;4.27;;;2.13;;
63217;SDS011;49314;48.278;16.378;2022-07-05T04:22:24;1.80;;;1.70;;
63217;SDS011;49314;48.278;16.378;2022-07-05T04:24:49;2.20;;;1.80;;
63217;SDS011;49314;48.278;16.378;2022-07-05T04:27:33;2.58;;;1.80;;
63217;SDS011;49314;48.278;16.378;2022-07-05T04:29:58;3.47;;;2.20;;
63217;SDS011;49314;48.278;16.378;2022-07-05T04:32:24;3.35;;;1.95;;
63217;SDS011;49314;48.278;16.378;2022-07-05T04:34:49;1.95;;;1.85;;
63217;SDS011;49314;48.278;16.378;2022-07-05T04:37:14;2.13;;;1.98;;
63217;SDS011;49314;48.278;16.378;2022-07-05T04:39:40;2.90;;;2.33;;
63217;SDS011;49314;48.278;16.378;2022-07-05T04:42:05;2.17;;;1.90;;
63217;SDS011;49314;48.278;16.378;2022-07-05T04:44:30;2.28;;;2.08;;
63217;SDS011;49314;48.278;16.378;2022-07-05T04:46:55;3.23;;;2.60;;
63217;SDS011;49314;48.278;16.378;2022-07-05T04:49:21;3.27;;;1.90;;
63217;SDS011;49314;48.278;16.378;2022-07-05T04:51:46;2.17;;;1.80;;
63217;SDS011;49314;48.278;16.378;2022-07-05T04:54:11;2.87;;;2.67;;
63217;SDS011;49314;48.278;16.378;2022-07-05T04:56:36;4.27;;;1.90;;
63217;SDS011;49314;48.278;16.378;2022-07-05T04:59:01;4.23;;;2.30;;
63217;SDS011;49314;48.278;16.378;2022-07-05T05:01:27;2.33;;;2.23;;
63217;SDS011;49314;48.278;16.378;2022-07-05T05:03:52;3.87;;;2.20;;
63217;SDS011;49314;48.278;16.378;2022-07-05T05:06:17;1.90;;;1.73;;
63217;SDS011;49314;48.278;16.378;2022-07-05T05:08:42;2.63;;;2.07;;
63217;SDS011;49314;48.278;16.378;2022-07-05T05:11:08;2.43;;;2.07;;
63217;SDS011;49314;48.278;16.378;2022-07-05T05:13:33;2.28;;;2.08;;
63217;SDS011;49314;48.278;16.378;2022-07-05T05:15:58;1.90;;;1.80;;
63217;SDS011;49314;48.278;16.378;2022-07-05T05:18:24;2.37;;;2.00;;
63217;SDS011;49314;48.278;16.378;2022-07-05T05:20:52;3.13;;;2.15;;
63217;SDS011;49314;48.278;16.378;2022-07-05T05:23:17;1.90;;;1.80;;
63217;SDS011;49314;48.278;16.378;2022-07-05T05:25:42;2.27;;;2.17;;
63217;SDS011;49314;48.278;16.378;2022-07-05T05:28:08;9.32;;;2.85;;
63217;SDS011;49314;48.278;16.378;2022-07-05T05:30:33;9.20;;;2.88;;
63217;SDS011;49314;48.278;16.378;2022-07-05T05:32:58;3.22;;;2.30;;
63217;SDS011;49314;48.278;16.378;2022-07-05T05:35:23;3.03;;;2.40;;
63217;SDS011;49314;48.278;16.378;2022-07-05T05:37:50;2.60;;;2.40;;
63217;SDS011;49314;48.278;16.378;2022-07-05T05:40:15;3.53;;;1.77;;
63217;SDS011;49314;48.278;16.378;2022-07-05T05:42:41;2.90;;;2.38;;
63217;SDS011;49314;48.278;16.378;2022-07-05T05:45:06;4.07;;;2.72;;
63217;SDS011;49314;48.278;16.378;2022-07-05T05:47:32;4.32;;;2.67;;
63217;SDS011;49314;48.278;16.378;2022-07-05T05:49:57;2.83;;;2.50;;
63217;SDS011;49314;48.278;16.378;2022-07-05T05:52:22;6.23;;;2.77;;
63217;SDS011;49314;48.278;16.378;2022-07-05T05:54:48;3.30;;;2.40;;
63217;SDS011;49314;48.278;16.378;2022-07-05T05:57:13;3.93;;;2.40;;
63217;SDS011;49314;48.278;16.378;2022-07-05T05:59:38;2.70;;;2.50;;
63217;SDS011;49314;48.278;16.378;2022-07-05T06:02:03;4.07;;;2.30;;
63217;SDS011;49314;48.278;16.378;2022-07-05T06:04:29;3.40;;;2.28;;
63217;SDS011;49314;48.278;16.378;2022-07-05T06:06:54;6.20;;;3.03;;
63217;SDS011;49314;48.278;16.378;2022-07-05T06:09:19;2.73;;;2.53;;
63217;SDS011;49314;48.278;16.378;2022-07-05T06:11:44;2.77;;;2.57;;
63217;SDS011;49314;48.278;16.378;2022-07-05T06:14:09;2.90;;;2.63;;
63217;SDS011;49314;48.278;16.378;2022-07-05T06:16:36;2.67;;;2.47;;
63217;SDS011;49314;48.278;16.378;2022-07-05T06:19:01;3.97;;;3.00;;
63217;SDS011;49314;48.278;16.378;2022-07-05T06:21:27;7.57;;;2.90;;
63217;SDS011;49314;48.278;16.378;2022-07-05T06:23:52;3.57;;;2.83;;
63217;SDS011;49314;48.278;16.378;2022-07-05T06:26:17;3.13;;;2.93;;
63217;SDS011;49314;48.278;16.378;2022-07-05T06:28:42;3.20;;;3.00;;
63217;SDS011;49314;48.278;16.378;2022-07-05T06:31:08;3.67;;;3.40;;
63217;SDS011;49314;48.278;16.378;2022-07-05T06:33:33;3.60;;;2.93;;
63217;SDS011;49314;48.278;16.378;2022-07-05T06:35:58;3.07;;;2.87;;
63217;SDS011;49314;48.278;16.378;2022-07-05T06:38:23;3.27;;;3.07;;
63217;SDS011;49314;48.278;16.378;2022-07-05T06:40:49;4.63;;;3.27;;
63217;SDS011;49314;48.278;16.378;2022-07-05T06:43:14;2.93;;;2.73;;
63217;SDS011;49314;48.278;16.378;2022-07-05T06:45:39;3.67;;;3.37;;
63217;SDS011;49314;48.278;16.378;2022-07-05T06:48:05;3.08;;;2.88;;
63217;SDS011;49314;48.278;16.378;2022-07-05T06:50:32;3.53;;;3.22;;
63217;SDS011;49314;48.278;16.378;2022-07-05T06:52:57;3.67;;;3.10;;
63217;SDS011;49314;48.278;16.378;2022-07-05T06:55:23;3.35;;;3.10;;
63217;SDS011;49314;48.278;16.378;2022-07-05T06:57:48;3.10;;;2.90;;
63217;SDS011;49314;48.278;16.378;2022-07-05T07:00:14;3.38;;;3.03;;
63217;SDS011;49314;48.278;16.378;2022-07-05T07:02:40;3.45;;;2.90;;
63217;SDS011;49314;48.278;16.378;2022-07-05T07:05:05;2.75;;;2.55;;
63217;SDS011;49314;48.278;16.378;2022-07-05T07:07:31;2.60;;;2.40;;
63217;SDS011;49314;48.278;16.378;2022-07-05T07:10:15;3.05;;;2.85;;
63217;SDS011;49314;48.278;16.378;2022-07-05T07:12:40;2.80;;;2.60;;
63217;SDS011;49314;48.278;16.378;2022-07-05T07:15:05;3.10;;;2.80;;
63217;SDS011;49314;48.278;16.378;2022-07-05T07:17:31;3.42;;;2.90;;
63217;SDS011;49314;48.278;16.378;2022-07-05T07:19:56;3.40;;;3.00;;
63217;SDS011;49314;48.278;16.378;2022-07-05T07:22:21;2.37;;;2.27;;
63217;SDS011;49314;48.278;16.378;2022-07-05T07:24:46;2.53;;;2.37;;
63217;SDS011;49314;48.278;16.378;2022-07-05T07:27:12;2.43;;;2.23;;
63217;SDS011;49314;48.278;16.378;2022-07-05T07:29:37;2.40;;;2.20;;
63217;SDS011;49314;48.278;16.378;2022-07-05T07:32:03;2.60;;;2.40;;
63217;SDS011;49314;48.278;16.378;2022-07-05T07:34:29;2.40;;;2.20;;
63217;SDS011;49314;48.278;16.378;2022-07-05T07:36:54;2.97;;;2.20;;
63217;SDS011;49314;48.278;16.378;2022-07-05T07:39:20;2.35;;;2.20;;
63217;SDS011;49314;48.278;16.378;2022-07-05T07:41:45;2.42;;;2.22;;
63217;SDS011;49314;48.278;16.378;2022-07-05T07:44:11;4.10;;;2.85;;
63217;SDS011;49314;48.278;16.378;2022-07-05T07:46:36;2.23;;;1.80;;
63217;SDS011;49314;48.278;16.378;2022-07-05T07:49:01;1.98;;;1.88;;
63217;SDS011;49314;48.278;16.378;2022-07-05T07:51:27;1.95;;;1.83;;
63217;SDS011;49314;48.278;16.378;2022-07-05T07:53:52;2.33;;;1.80;;
63217;SDS011;49314;48.278;16.378;2022-07-05T07:56:17;1.90;;;1.70;;
63217;SDS011;49314;48.278;16.378;2022-07-05T07:58:43;2.20;;;2.00;;
63217;SDS011;49314;48.278;16.378;2022-07-05T08:01:08;1.70;;;1.60;;
63217;SDS011;49314;48.278;16.378;2022-07-05T08:03:39;2.00;;;1.63;;
63217;SDS011;49314;48.278;16.378;2022-07-05T08:06:04;2.00;;;1.90;;
63217;SDS011;49314;48.278;16.378;2022-07-05T08:08:29;1.90;;;1.70;;
63217;SDS011;49314;48.278;16.378;2022-07-05T08:10:55;2.00;;;1.60;;
63217;SDS011;49314;48.278;16.378;2022-07-05T08:13:20;1.03;;;1.03;;
63217;SDS011;49314;48.278;16.378;2022-07-05T08:15:45;1.80;;;1.70;;
63217;SDS011;49314;48.278;16.378;2022-07-05T08:18:10;3.17;;;1.50;;
63217;SDS011;49314;48.278;16.378;2022-07-05T08:20:54;1.70;;;1.60;;
63217;SDS011;49314;48.278;16.378;2022-07-05T08:23:38;1.50;;;1.40;;
63217;SDS011;49314;48.278;16.378;2022-07-05T08:26:03;1.33;;;1.30;;
63217;SDS011;49314;48.278;16.378;2022-07-05T08:28:28;3.00;;;1.52;;
63217;SDS011;49314;48.278;16.378;2022-07-05T08:30:53;1.80;;;1.70;;
63217;SDS011;49314;48.278;16.378;2022-07-05T08:33:19;3.13;;;1.40;;
63217;SDS011;49314;48.278;16.378;2022-07-05T08:35:44;1.50;;;1.40;;
63217;SDS011;49314;48.278;16.378;2022-07-05T08:38:09;1.60;;;1.23;;
63217;SDS011;49314;48.278;16.378;2022-07-05T08:40:36;1.27;;;1.17;;
63217;SDS011;49314;48.278;16.378;2022-07-05T08:43:01;1.88;;;1.23;;
63217;SDS011;49314;48.278;16.378;2022-07-05T08:45:28;1.48;;;1.10;;
63217;SDS011;49314;48.278;16.378;2022-07-05T08:47:54;1.20;;;1.10;;
63217;SDS011;49314;48.278;16.378;2022-07-05T08:50:21;2.42;;;1.52;;
63217;SDS011;49314;48.278;16.378;2022-07-05T08:52:46;3.20;;;1.33;;
63217;SDS011;49314;48.278;16.378;2022-07-05T08:55:12;1.60;;;1.17;;
63217;SDS011;49314;48.278;16.378;2022-07-05T08:57:38;1.70;;;1.30;;
63217;SDS011;49314;48.278;16.378;2022-07-05T09:00:03;1.30;;;1.17;;
63217;SDS011;49314;48.278;16.378;2022-07-05T09:02:28;1.55;;;1.45;;
63217;SDS011;49314;48.278;16.378;2022-07-05T09:04:54;1.20;;;1.10;;
63217;SDS011;49314;48.278;16.378;2022-07-05T09:07:21;1.35;;;1.10;;
63217;SDS011;49314;48.278;16.378;2022-07-05T09:09:48;1.30;;;1.05;;
63217;SDS011;49314;48.278;16.378;2022-07-05T09:12:13;2.28;;;1.40;;
63217;SDS011;49314;48.278;16.378;2022-07-05T09:14:39;1.52;;;1.42;;
63217;SDS011;49314;48.278;16.378;2022-07-05T09:17:04;1.50;;;1.33;;
63217;SDS011;49314;48.278;16.378;2022-07-05T09:19:30;1.38;;;1.10;;
63217;SDS011;49314;48.278;16.378;2022-07-05T09:22:03;1.27;;;1.17;;
63217;SDS011;49314;48.278;16.378;2022-07-05T09:24:28;2.28;;;1.42;;
63217;SDS011;49314;48.278;16.378;2022-07-05T09:26:54;1.20;;;1.10;;
63217;SDS011;49314;48.278;16.378;2022-07-05T09:29:26;1.27;;;1.17;;
63217;SDS011;49314;48.278;16.378;2022-07-05T09:31:51;3.50;;;1.57;;
63217;SDS011;49314;48.278;16.378;2022-07-05T09:34:20;1.20;;;1.10;;
63217;SDS011;49314;48.278;16.378;2022-07-05T09:39:11;1.67;;;1.30;;
63217;SDS011;49314;48.278;16.378;2022-07-05T09:41:37;1.60;;;1.13;;
63217;SDS011;49314;48.278;16.378;2022-07-05T09:44:02;1.60;;;1.30;;
63217;SDS011;49314;48.278;16.378;2022-07-05T09:46:30;1.10;;;1.00;;
63217;SDS011;49314;48.278;16.378;2022-07-05T09:48:56;0.80;;;0.80;;
63217;SDS011;49314;48.278;16.378;2022-07-05T09:51:21;1.57;;;1.37;;
63217;SDS011;49314;48.278;16.378;2022-07-05T09:53:50;1.10;;;1.00;;
63217;SDS011;49314;48.278;16.378;2022-07-05T09:56:15;1.63;;;1.23;;
63217;SDS011;49314;48.278;16.378;2022-07-05T09:58:41;1.88;;;1.20;;
63217;SDS011;49314;48.278;16.378;2022-07-05T10:03:51;2.78;;;1.13;;
63217;SDS011;49314;48.278;16.378;2022-07-05T10:06:17;1.40;;;1.08;;
63217;SDS011;49314;48.278;16.378;2022-07-05T10:08:42;1.57;;;1.07;;
63217;SDS011;49314;48.278;16.378;2022-07-05T10:11:08;1.67;;;1.10;;
63217;SDS011;49314;48.278;16.378;2022-07-05T10:13:33;2.53;;;1.47;;
63217;SDS011;49314;48.278;16.378;2022-07-05T10:15:58;1.20;;;1.10;;
63217;SDS011;49314;48.278;16.378;2022-07-05T10:18:23;1.30;;;1.20;;
63217;SDS011;49314;48.278;16.378;2022-07-05T10:20:56;3.33;;;1.13;;
63217;SDS011;49314;48.278;16.378;2022-07-05T10:23:24;2.53;;;1.30;;
63217;SDS011;49314;48.278;16.378;2022-07-05T10:25:50;1.98;;;1.08;;
63217;SDS011;49314;48.278;16.378;2022-07-05T10:28:15;1.13;;;1.03;;
63217;SDS011;49314;48.278;16.378;2022-07-05T10:30:41;1.30;;;1.20;;
63217;SDS011;49314;48.278;16.378;2022-07-05T10:33:09;1.77;;;1.35;;
63217;SDS011;49314;48.278;16.378;2022-07-05T10:35:35;1.30;;;1.20;;
63217;SDS011;49314;48.278;16.378;2022-07-05T10:38:01;2.03;;;1.15;;
63217;SDS011;49314;48.278;16.378;2022-07-05T10:40:26;1.27;;;1.17;;
63217;SDS011;49314;48.278;16.378;2022-07-05T10:42:56;1.58;;;1.08;;
63217;SDS011;49314;48.278;16.378;2022-07-05T10:45:27;2.30;;;1.30;;
63217;SDS011;49314;48.278;16.378;2022-07-05T10:53:15;1.20;;;1.10;;
63217;SDS011;49314;48.278;16.378;2022-07-05T10:55:51;1.25;;;1.15;;
63217;SDS011;49314;48.278;16.378;2022-07-05T11:00:42;1.27;;;1.10;;
63217;SDS011;49314;48.278;16.378;2022-07-05T11:03:31;2.55;;;1.30;;
63217;SDS011;49314;48.278;16.378;2022-07-05T11:05:53;1.40;;;1.30;;
63217;SDS011;49314;48.278;16.378;2022-07-05T11:08:18;1.30;;;1.17;;
63217;SDS011;49314;48.278;16.378;2022-07-05T11:13:37;1.83;;;1.10;;
63217;SDS011;49314;48.278;16.378;2022-07-05T11:18:48;2.92;;;1.25;;
63217;SDS011;49314;48.278;16.378;2022-07-05T11:21:20;1.58;;;1.48;;
63217;SDS011;49314;48.278;16.378;2022-07-05T11:26:11;1.30;;;1.20;;
63217;SDS011;49314;48.278;16.378;2022-07-05T11:28:41;1.30;;;1.20;;
63217;SDS011;49314;48.278;16.378;2022-07-05T11:31:07;1.85;;;1.25;;
63217;SDS011;49314;48.278;16.378;2022-07-05T11:33:37;1.55;;;1.45;;
63217;SDS011;49314;48.278;16.378;2022-07-05T11:36:03;1.30;;;1.20;;
63217;SDS011;49314;48.278;16.378;2022-07-05T11:38:29;1.80;;;1.40;;
63217;SDS011;49314;48.278;16.378;2022-07-05T11:40:55;2.30;;;0.95;;
63217;SDS011;49314;48.278;16.378;2022-07-05T11:43:29;1.33;;;1.20;;
63217;SDS011;49314;48.278;16.378;2022-07-05T11:45:56;2.92;;;1.42;;
63217;SDS011;49314;48.278;16.378;2022-07-05T11:48:21;2.90;;;1.20;;
63217;SDS011;49314;48.278;16.378;2022-07-05T11:50:46;1.67;;;1.20;;
63217;SDS011;49314;48.278;16.378;2022-07-05T11:53:12;2.38;;;1.40;;
63217;SDS011;49314;48.278;16.378;2022-07-05T11:55:37;1.40;;;1.30;;
63217;SDS011;49314;48.278;16.378;2022-07-05T11:58:02;1.60;;;1.40;;
63217;SDS011;49314;48.278;16.378;2022-07-05T12:00:29;2.17;;;1.67;;
63217;SDS011;49314;48.278;16.378;2022-07-05T12:02:54;1.23;;;1.13;;
63217;SDS011;49314;48.278;16.378;2022-07-05T12:05:20;1.52;;;1.40;;
63217;SDS011;49314;48.278;16.378;2022-07-05T12:07:49;1.75;;;1.35;;
63217;SDS011;49314;48.278;16.378;2022-07-05T12:10:14;1.58;;;1.48;;
63217;SDS011;49314;48.278;16.378;2022-07-05T12:13:07;1.80;;;1.35;;
63217;SDS011;49314;48.278;16.378;2022-07-05T12:15:33;1.35;;;1.25;;
63217;SDS011;49314;48.278;16.378;2022-07-05T12:17:59;1.50;;;1.40;;
63217;SDS011;49314;48.278;16.378;2022-07-05T12:20:28;1.75;;;1.30;;
63217;SDS011;49314;48.278;16.378;2022-07-05T12:22:53;1.67;;;1.57;;
63217;SDS011;49314;48.278;16.378;2022-07-05T12:25:20;1.60;;;1.50;;
63217;SDS011;49314;48.278;16.378;2022-07-05T12:27:47;1.58;;;1.48;;
63217;SDS011;49314;48.278;16.378;2022-07-05T12:30:13;1.60;;;1.50;;
63217;SDS011;49314;48.278;16.378;2022-07-05T12:35:36;2.05;;;1.48;;
63217;SDS011;49314;48.278;16.378;2022-07-05T12:38:05;1.95;;;1.80;;
63217;SDS011;49314;48.278;16.378;2022-07-05T12:40:31;1.65;;;1.55;;
63217;SDS011;49314;48.278;16.378;2022-07-05T12:43:07;1.40;;;1.30;;
63217;SDS011;49314;48.278;16.378;2022-07-05T12:45:32;2.30;;;1.50;;
63217;SDS011;49314;48.278;16.378;2022-07-05T12:47:59;2.55;;;1.85;;
63217;SDS011;49314;48.278;16.378;2022-07-05T12:50:25;1.83;;;1.60;;
63217;SDS011;49314;48.278;16.378;2022-07-05T12:53:33;2.10;;;1.40;;
63217;SDS011;49314;48.278;16.378;2022-07-05T12:55:59;1.75;;;1.40;;
63217;SDS011;49314;48.278;16.378;2022-07-05T12:58:47;2.33;;;1.30;;
63217;SDS011;49314;48.278;16.378;2022-07-05T13:01:32;1.60;;;1.50;;
63217;SDS011;49314;48.278;16.378;2022-07-05T13:04:06;1.83;;;1.60;;
63217;SDS011;49314;48.278;16.378;2022-07-05T13:06:49;1.95;;;1.85;;
63217;SDS011;49314;48.278;16.378;2022-07-05T13:14:30;2.13;;;1.95;;
63217;SDS011;49314;48.278;16.378;2022-07-05T13:16:55;2.10;;;1.77;;
63217;SDS011;49314;48.278;16.378;2022-07-05T13:19:20;1.67;;;1.53;;
63217;SDS011;49314;48.278;16.378;2022-07-05T13:21:45;1.83;;;1.70;;
63217;SDS011;49314;48.278;16.378;2022-07-05T13:24:11;2.00;;;1.90;;
63217;SDS011;49314;48.278;16.378;2022-07-05T13:26:36;1.90;;;1.80;;
63217;SDS011;49314;48.278;16.378;2022-07-05T13:29:01;2.30;;;1.83;;
63217;SDS011;49314;48.278;16.378;2022-07-05T13:31:26;2.35;;;1.60;;
63217;SDS011;49314;48.278;16.378;2022-07-05T13:33:53;1.92;;;1.83;;
63217;SDS011;49314;48.278;16.378;2022-07-05T13:36:19;1.83;;;1.73;;
63217;SDS011;49314;48.278;16.378;2022-07-05T13:38:44;1.80;;;1.67;;
63217;SDS011;49314;48.278;16.378;2022-07-05T13:41:09;2.60;;;1.80;;
63217;SDS011;49314;48.278;16.378;2022-07-05T13:43:34;2.63;;;2.30;;
63217;SDS011;49314;48.278;16.378;2022-07-05T13:46:00;2.10;;;1.90;;
63217;SDS011;49314;48.278;16.378;2022-07-05T13:48:25;1.77;;;1.67;;
63217;SDS011;49314;48.278;16.378;2022-07-05T13:50:50;2.13;;;2.03;;
63217;SDS011;49314;48.278;16.378;2022-07-05T13:53:15;1.90;;;1.80;;
63217;SDS011;49314;48.278;16.378;2022-07-05T13:55:41;2.15;;;2.05;;
63217;SDS011;49314;48.278;16.378;2022-07-05T13:58:06;2.10;;;1.90;;
63217;SDS011;49314;48.278;16.378;2022-07-05T14:00:31;1.70;;;1.60;;
63217;SDS011;49314;48.278;16.378;2022-07-05T14:02:57;2.10;;;2.00;;
63217;SDS011;49314;48.278;16.378;2022-07-05T14:05:22;1.80;;;1.70;;
63217;SDS011;49314;48.278;16.378;2022-07-05T14:07:47;2.87;;;1.63;;
63217;SDS011;49314;48.278;16.378;2022-07-05T14:10:13;1.90;;;1.80;;
63217;SDS011;49314;48.278;16.378;2022-07-05T14:12:39;2.22;;;1.60;;
63217;SDS011;49314;48.278;16.378;2022-07-05T14:15:04;1.75;;;1.60;;
63217;SDS011;49314;48.278;16.378;2022-07-05T14:17:30;2.03;;;1.92;;
63217;SDS011;49314;48.278;16.378;2022-07-05T14:19:55;3.57;;;1.80;;
63217;SDS011;49314;48.278;16.378;2022-07-05T14:22:21;3.47;;;2.17;;
63217;SDS011;49314;48.278;16.378;2022-07-05T14:24:46;2.10;;;1.90;;
63217;SDS011;49314;48.278;16.378;2022-07-05T14:27:11;2.37;;;2.17;;
63217;SDS011;49314;48.278;16.378;2022-07-05T14:29:36;2.47;;;2.00;;
63217;SDS011;49314;48.278;16.378;2022-07-05T14:32:02;2.30;;;2.10;;
63217;SDS011;49314;48.278;16.378;2022-07-05T14:34:27;2.20;;;2.10;;
63217;SDS011;49314;48.278;16.378;2022-07-05T14:36:53;2.22;;;2.13;;
63217;SDS011;49314;48.278;16.378;2022-07-05T14:39:18;1.83;;;1.73;;
63217;SDS011;49314;48.278;16.378;2022-07-05T14:41:44;2.50;;;2.30;;
63217;SDS011;49314;48.278;16.378;2022-07-05T14:44:10;2.20;;;2.00;;
63217;SDS011;49314;48.278;16.378;2022-07-05T14:46:35;2.47;;;2.27;;
63217;SDS011;49314;48.278;16.378;2022-07-05T14:49:00;2.90;;;2.40;;
63217;SDS011;49314;48.278;16.378;2022-07-05T14:51:25;3.77;;;2.37;;
63217;SDS011;49314;48.278;16.378;2022-07-05T14:53:51;2.77;;;2.33;;
63217;SDS011;49314;48.278;16.378;2022-07-05T14:56:16;5.93;;;2.50;;